sensor_id;sensor_type;location;lat;lon;timestamp;P1;durP1;ratioP1;P2;durP2;ratioP2
14698;SDS011;7439;50.804;4.602;2023-11-21T00:02:00;187.53;;;180.73;;
14698;SDS011;7439;50.804;4.602;2023-11-21T00:04:29;189.43;;;182.60;;
14698;SDS011;7439;50.804;4.602;2023-11-21T00:06:56;205.50;;;198.20;;
14698;SDS011;7439;50.804;4.602;2023-11-21T00:09:26;221.97;;;214.13;;
14698;SDS011;7439;50.804;4.602;2023-11-21T00:11:54;215.00;;;207.07;;
14698;SDS011;7439;50.804;4.602;2023-11-21T00:14:22;207.60;;;200.30;;
14698;SDS011;7439;50.804;4.602;2023-11-21T00:16:49;213.40;;;205.80;;
14698;SDS011;7439;50.804;4.602;2023-11-21T00:19:17;201.90;;;194.60;;
14698;SDS011;7439;50.804;4.602;2023-11-21T00:21:44;189.50;;;182.67;;
14698;SDS011;7439;50.804;4.602;2023-11-21T00:24:11;194.87;;;187.87;;
14698;SDS011;7439;50.804;4.602;2023-11-21T00:26:39;183.97;;;177.20;;
14698;SDS011;7439;50.804;4.602;2023-11-21T00:29:08;173.33;;;166.97;;
14698;SDS011;7439;50.804;4.602;2023-11-21T00:31:36;169.30;;;163.00;;
14698;SDS011;7439;50.804;4.602;2023-11-21T00:34:03;179.00;;;172.47;;
14698;SDS011;7439;50.804;4.602;2023-11-21T00:36:31;168.13;;;161.93;;
14698;SDS011;7439;50.804;4.602;2023-11-21T00:38:58;175.47;;;168.97;;
14698;SDS011;7439;50.804;4.602;2023-11-21T00:41:28;175.50;;;169.07;;
14698;SDS011;7439;50.804;4.602;2023-11-21T00:43:55;189.33;;;182.30;;
14698;SDS011;7439;50.804;4.602;2023-11-21T00:46:25;196.93;;;189.87;;
14698;SDS011;7439;50.804;4.602;2023-11-21T00:48:54;212.70;;;205.13;;
14698;SDS011;7439;50.804;4.602;2023-11-21T00:51:22;217.60;;;209.90;;
14698;SDS011;7439;50.804;4.602;2023-11-21T00:53:50;214.67;;;206.93;;
14698;SDS011;7439;50.804;4.602;2023-11-21T00:56:17;207.80;;;200.40;;
14698;SDS011;7439;50.804;4.602;2023-11-21T00:58:44;214.50;;;206.90;;
14698;SDS011;7439;50.804;4.602;2023-11-21T01:01:15;218.27;;;210.53;;
14698;SDS011;7439;50.804;4.602;2023-11-21T01:03:44;253.67;;;244.73;;
14698;SDS011;7439;50.804;4.602;2023-11-21T01:06:12;260.83;;;251.67;;
14698;SDS011;7439;50.804;4.602;2023-11-21T01:08:40;245.40;;;236.80;;
14698;SDS011;7439;50.804;4.602;2023-11-21T01:11:07;245.57;;;236.97;;
14698;SDS011;7439;50.804;4.602;2023-11-21T01:13:37;244.83;;;236.13;;
14698;SDS011;7439;50.804;4.602;2023-11-21T01:16:04;253.00;;;243.90;;
14698;SDS011;7439;50.804;4.602;2023-11-21T01:18:32;238.57;;;230.07;;
14698;SDS011;7439;50.804;4.602;2023-11-21T01:21:01;234.57;;;226.07;;
14698;SDS011;7439;50.804;4.602;2023-11-21T01:23:29;225.10;;;217.00;;
14698;SDS011;7439;50.804;4.602;2023-11-21T01:25:56;222.47;;;214.60;;
14698;SDS011;7439;50.804;4.602;2023-11-21T01:28:23;214.77;;;207.10;;
14698;SDS011;7439;50.804;4.602;2023-11-21T01:30:51;217.03;;;209.20;;
14698;SDS011;7439;50.804;4.602;2023-11-21T01:33:21;214.40;;;206.50;;
14698;SDS011;7439;50.804;4.602;2023-11-21T01:35:50;204.63;;;197.13;;
14698;SDS011;7439;50.804;4.602;2023-11-21T01:38:21;193.20;;;186.20;;
14698;SDS011;7439;50.804;4.602;2023-11-21T01:40:49;172.07;;;165.70;;
14698;SDS011;7439;50.804;4.602;2023-11-21T01:43:16;167.87;;;161.70;;
14698;SDS011;7439;50.804;4.602;2023-11-21T01:45:43;168.80;;;162.40;;
14698;SDS011;7439;50.804;4.602;2023-11-21T01:48:11;173.77;;;167.27;;
14698;SDS011;7439;50.804;4.602;2023-11-21T01:50:39;165.77;;;159.57;;
14698;SDS011;7439;50.804;4.602;2023-11-21T01:53:07;159.17;;;153.20;;
14698;SDS011;7439;50.804;4.602;2023-11-21T01:55:36;161.57;;;155.47;;
14698;SDS011;7439;50.804;4.602;2023-11-21T01:58:03;162.23;;;156.13;;
14698;SDS011;7439;50.804;4.602;2023-11-21T02:00:32;171.53;;;165.10;;
14698;SDS011;7439;50.804;4.602;2023-11-21T02:03:00;167.77;;;161.53;;
14698;SDS011;7439;50.804;4.602;2023-11-21T02:05:27;168.50;;;161.93;;
14698;SDS011;7439;50.804;4.602;2023-11-21T02:07:55;174.63;;;168.13;;
14698;SDS011;7439;50.804;4.602;2023-11-21T02:10:22;180.00;;;173.33;;
14698;SDS011;7439;50.804;4.602;2023-11-21T02:12:51;193.57;;;186.57;;
14698;SDS011;7439;50.804;4.602;2023-11-21T02:15:19;192.10;;;185.20;;
14698;SDS011;7439;50.804;4.602;2023-11-21T02:17:46;197.37;;;190.17;;
14698;SDS011;7439;50.804;4.602;2023-11-21T02:20:16;199.70;;;192.50;;
14698;SDS011;7439;50.804;4.602;2023-11-21T02:22:48;187.53;;;180.70;;
14698;SDS011;7439;50.804;4.602;2023-11-21T02:25:18;185.73;;;178.90;;
14698;SDS011;7439;50.804;4.602;2023-11-21T02:27:45;177.83;;;171.23;;
14698;SDS011;7439;50.804;4.602;2023-11-21T02:30:14;169.70;;;163.40;;
14698;SDS011;7439;50.804;4.602;2023-11-21T02:32:41;156.27;;;150.47;;
14698;SDS011;7439;50.804;4.602;2023-11-21T02:35:09;142.87;;;137.47;;
14698;SDS011;7439;50.804;4.602;2023-11-21T02:37:37;129.27;;;124.27;;
14698;SDS011;7439;50.804;4.602;2023-11-21T02:40:08;116.47;;;112.00;;
14698;SDS011;7439;50.804;4.602;2023-11-21T02:42:37;117.20;;;112.70;;
14698;SDS011;7439;50.804;4.602;2023-11-21T02:45:06;123.23;;;118.43;;
14698;SDS011;7439;50.804;4.602;2023-11-21T02:47:34;117.47;;;113.07;;
14698;SDS011;7439;50.804;4.602;2023-11-21T02:50:01;117.40;;;112.80;;
14698;SDS011;7439;50.804;4.602;2023-11-21T02:52:29;116.40;;;111.90;;
14698;SDS011;7439;50.804;4.602;2023-11-21T02:54:58;120.43;;;115.87;;
14698;SDS011;7439;50.804;4.602;2023-11-21T02:57:27;126.77;;;121.97;;
14698;SDS011;7439;50.804;4.602;2023-11-21T02:59:54;128.23;;;123.33;;
14698;SDS011;7439;50.804;4.602;2023-11-21T03:02:22;137.40;;;132.10;;
14698;SDS011;7439;50.804;4.602;2023-11-21T03:04:49;144.20;;;138.83;;
14698;SDS011;7439;50.804;4.602;2023-11-21T03:07:16;139.10;;;133.70;;
14698;SDS011;7439;50.804;4.602;2023-11-21T03:09:44;161.90;;;155.83;;
14698;SDS011;7439;50.804;4.602;2023-11-21T03:12:12;163.53;;;157.40;;
14698;SDS011;7439;50.804;4.602;2023-11-21T03:14:41;182.40;;;175.73;;
14698;SDS011;7439;50.804;4.602;2023-11-21T03:17:08;188.80;;;181.80;;
14698;SDS011;7439;50.804;4.602;2023-11-21T03:19:36;202.03;;;194.83;;
14698;SDS011;7439;50.804;4.602;2023-11-21T03:22:04;193.87;;;186.87;;
14698;SDS011;7439;50.804;4.602;2023-11-21T03:24:31;198.23;;;191.03;;
14698;SDS011;7439;50.804;4.602;2023-11-21T03:26:58;191.93;;;184.93;;
14698;SDS011;7439;50.804;4.602;2023-11-21T03:29:26;182.30;;;175.67;;
14698;SDS011;7439;50.804;4.602;2023-11-21T03:31:55;175.87;;;169.37;;
14698;SDS011;7439;50.804;4.602;2023-11-21T03:34:23;173.20;;;166.80;;
14698;SDS011;7439;50.804;4.602;2023-11-21T03:36:51;179.07;;;172.37;;
14698;SDS011;7439;50.804;4.602;2023-11-21T03:39:19;183.30;;;176.53;;
14698;SDS011;7439;50.804;4.602;2023-11-21T03:41:47;186.80;;;179.93;;
14698;SDS011;7439;50.804;4.602;2023-11-21T03:44:14;190.53;;;183.47;;
14698;SDS011;7439;50.804;4.602;2023-11-21T03:46:42;199.43;;;192.23;;
14698;SDS011;7439;50.804;4.602;2023-11-21T03:49:11;204.20;;;196.80;;
14698;SDS011;7439;50.804;4.602;2023-11-21T03:51:39;188.33;;;181.43;;
14698;SDS011;7439;50.804;4.602;2023-11-21T03:54:06;183.73;;;177.03;;
14698;SDS011;7439;50.804;4.602;2023-11-21T03:56:33;182.73;;;176.07;;
14698;SDS011;7439;50.804;4.602;2023-11-21T03:59:01;193.13;;;186.17;;
14698;SDS011;7439;50.804;4.602;2023-11-21T04:01:28;185.00;;;178.20;;
14698;SDS011;7439;50.804;4.602;2023-11-21T04:03:56;183.57;;;176.83;;
14698;SDS011;7439;50.804;4.602;2023-11-21T04:06:25;185.97;;;179.27;;
14698;SDS011;7439;50.804;4.602;2023-11-21T04:08:52;178.50;;;171.90;;
14698;SDS011;7439;50.804;4.602;2023-11-21T04:11:19;186.60;;;179.70;;
14698;SDS011;7439;50.804;4.602;2023-11-21T04:13:47;185.67;;;178.87;;
14698;SDS011;7439;50.804;4.602;2023-11-21T04:16:14;185.57;;;178.60;;
14698;SDS011;7439;50.804;4.602;2023-11-21T04:18:42;181.37;;;174.67;;
14698;SDS011;7439;50.804;4.602;2023-11-21T04:21:09;179.57;;;172.97;;
14698;SDS011;7439;50.804;4.602;2023-11-21T04:23:38;186.93;;;180.03;;
14698;SDS011;7439;50.804;4.602;2023-11-21T04:26:06;177.87;;;171.37;;
14698;SDS011;7439;50.804;4.602;2023-11-21T04:28:33;166.17;;;160.03;;
14698;SDS011;7439;50.804;4.602;2023-11-21T04:31:01;164.83;;;158.63;;
14698;SDS011;7439;50.804;4.602;2023-11-21T04:33:30;165.67;;;159.37;;
14698;SDS011;7439;50.804;4.602;2023-11-21T04:35:58;153.00;;;147.30;;
14698;SDS011;7439;50.804;4.602;2023-11-21T04:38:25;151.80;;;146.03;;
14698;SDS011;7439;50.804;4.602;2023-11-21T04:40:54;148.23;;;142.63;;
14698;SDS011;7439;50.804;4.602;2023-11-21T04:43:21;148.13;;;142.63;;
14698;SDS011;7439;50.804;4.602;2023-11-21T04:45:48;157.43;;;151.53;;
14698;SDS011;7439;50.804;4.602;2023-11-21T04:48:16;159.13;;;153.17;;
14698;SDS011;7439;50.804;4.602;2023-11-21T04:50:43;160.43;;;154.43;;
14698;SDS011;7439;50.804;4.602;2023-11-21T04:53:11;154.47;;;148.67;;
14698;SDS011;7439;50.804;4.602;2023-11-21T04:55:39;159.90;;;154.00;;
14698;SDS011;7439;50.804;4.602;2023-11-21T04:58:08;163.07;;;157.07;;
14698;SDS011;7439;50.804;4.602;2023-11-21T05:00:37;162.10;;;156.13;;
14698;SDS011;7439;50.804;4.602;2023-11-21T05:03:04;165.33;;;159.33;;
14698;SDS011;7439;50.804;4.602;2023-11-21T05:05:32;177.67;;;171.10;;
14698;SDS011;7439;50.804;4.602;2023-11-21T05:07:59;185.00;;;178.30;;
14698;SDS011;7439;50.804;4.602;2023-11-21T05:10:27;181.83;;;175.03;;
14698;SDS011;7439;50.804;4.602;2023-11-21T05:12:55;187.60;;;180.53;;
14698;SDS011;7439;50.804;4.602;2023-11-21T05:15:24;183.13;;;176.43;;
14698;SDS011;7439;50.804;4.602;2023-11-21T05:17:52;192.30;;;185.30;;
14698;SDS011;7439;50.804;4.602;2023-11-21T05:20:20;194.40;;;187.37;;
14698;SDS011;7439;50.804;4.602;2023-11-21T05:22:48;190.87;;;184.03;;
14698;SDS011;7439;50.804;4.602;2023-11-21T05:25:16;187.23;;;180.50;;
14698;SDS011;7439;50.804;4.602;2023-11-21T05:27:44;183.93;;;177.33;;
14698;SDS011;7439;50.804;4.602;2023-11-21T05:30:11;193.67;;;186.70;;
14698;SDS011;7439;50.804;4.602;2023-11-21T05:32:46;190.57;;;183.67;;
14698;SDS011;7439;50.804;4.602;2023-11-21T05:35:14;171.33;;;165.13;;
14698;SDS011;7439;50.804;4.602;2023-11-21T05:37:42;176.20;;;169.83;;
14698;SDS011;7439;50.804;4.602;2023-11-21T05:40:10;189.30;;;182.50;;
14698;SDS011;7439;50.804;4.602;2023-11-21T05:42:38;180.63;;;174.13;;
14698;SDS011;7439;50.804;4.602;2023-11-21T05:45:06;190.63;;;183.73;;
14698;SDS011;7439;50.804;4.602;2023-11-21T05:47:36;199.43;;;192.33;;
14698;SDS011;7439;50.804;4.602;2023-11-21T05:50:06;209.60;;;202.13;;
14698;SDS011;7439;50.804;4.602;2023-11-21T05:52:37;223.57;;;215.60;;
14698;SDS011;7439;50.804;4.602;2023-11-21T05:55:05;222.60;;;214.83;;
14698;SDS011;7439;50.804;4.602;2023-11-21T05:57:33;221.57;;;213.87;;
14698;SDS011;7439;50.804;4.602;2023-11-21T06:00:02;225.83;;;218.03;;
14698;SDS011;7439;50.804;4.602;2023-11-21T06:02:36;221.90;;;214.00;;
14698;SDS011;7439;50.804;4.602;2023-11-21T06:05:04;213.70;;;206.20;;
14698;SDS011;7439;50.804;4.602;2023-11-21T06:07:33;224.87;;;216.87;;
14698;SDS011;7439;50.804;4.602;2023-11-21T06:10:00;221.73;;;214.03;;
14698;SDS011;7439;50.804;4.602;2023-11-21T06:12:31;231.83;;;223.83;;
14698;SDS011;7439;50.804;4.602;2023-11-21T06:15:01;237.50;;;229.30;;
14698;SDS011;7439;50.804;4.602;2023-11-21T06:17:30;232.77;;;224.67;;
14698;SDS011;7439;50.804;4.602;2023-11-21T06:19:57;245.70;;;237.17;;
14698;SDS011;7439;50.804;4.602;2023-11-21T06:22:26;262.30;;;253.13;;
14698;SDS011;7439;50.804;4.602;2023-11-21T06:24:57;280.57;;;270.73;;
14698;SDS011;7439;50.804;4.602;2023-11-21T06:27:24;283.17;;;273.33;;
14698;SDS011;7439;50.804;4.602;2023-11-21T06:29:51;266.93;;;257.67;;
14698;SDS011;7439;50.804;4.602;2023-11-21T06:32:19;297.03;;;286.37;;
14698;SDS011;7439;50.804;4.602;2023-11-21T06:34:48;285.50;;;275.50;;
14698;SDS011;7439;50.804;4.602;2023-11-21T06:37:18;267.47;;;258.17;;
14698;SDS011;7439;50.804;4.602;2023-11-21T06:39:46;264.53;;;255.23;;
14698;SDS011;7439;50.804;4.602;2023-11-21T06:42:15;264.57;;;255.07;;
14698;SDS011;7439;50.804;4.602;2023-11-21T06:44:42;255.67;;;246.83;;
14698;SDS011;7439;50.804;4.602;2023-11-21T06:47:10;247.90;;;239.30;;
14698;SDS011;7439;50.804;4.602;2023-11-21T06:49:37;258.33;;;249.40;;
14698;SDS011;7439;50.804;4.602;2023-11-21T06:52:05;265.60;;;256.50;;
14698;SDS011;7439;50.804;4.602;2023-11-21T06:54:33;240.87;;;232.47;;
14698;SDS011;7439;50.804;4.602;2023-11-21T06:57:00;222.47;;;214.70;;
14698;SDS011;7439;50.804;4.602;2023-11-21T06:59:29;218.07;;;210.40;;
14698;SDS011;7439;50.804;4.602;2023-11-21T07:01:57;194.90;;;187.83;;
14698;SDS011;7439;50.804;4.602;2023-11-21T07:04:24;181.40;;;174.90;;
14698;SDS011;7439;50.804;4.602;2023-11-21T07:06:52;179.10;;;172.67;;
14698;SDS011;7439;50.804;4.602;2023-11-21T07:09:20;180.57;;;174.07;;
14698;SDS011;7439;50.804;4.602;2023-11-21T07:11:47;176.57;;;169.97;;
14698;SDS011;7439;50.804;4.602;2023-11-21T07:14:15;184.07;;;177.30;;
14698;SDS011;7439;50.804;4.602;2023-11-21T07:16:46;187.13;;;180.33;;
14698;SDS011;7439;50.804;4.602;2023-11-21T07:19:13;171.30;;;164.90;;
14698;SDS011;7439;50.804;4.602;2023-11-21T07:21:41;160.03;;;154.13;;
14698;SDS011;7439;50.804;4.602;2023-11-21T07:24:08;150.20;;;144.57;;
14698;SDS011;7439;50.804;4.602;2023-11-21T07:26:36;143.27;;;137.77;;
14698;SDS011;7439;50.804;4.602;2023-11-21T07:29:04;138.87;;;133.67;;
14698;SDS011;7439;50.804;4.602;2023-11-21T07:31:31;131.60;;;126.60;;
14698;SDS011;7439;50.804;4.602;2023-11-21T07:34:01;129.73;;;124.80;;
14698;SDS011;7439;50.804;4.602;2023-11-21T07:36:28;136.20;;;131.00;;
14698;SDS011;7439;50.804;4.602;2023-11-21T07:38:56;134.63;;;129.53;;
14698;SDS011;7439;50.804;4.602;2023-11-21T07:41:23;143.60;;;138.10;;
14698;SDS011;7439;50.804;4.602;2023-11-21T07:43:50;136.07;;;130.63;;
14698;SDS011;7439;50.804;4.602;2023-11-21T07:46:18;134.57;;;129.47;;
14698;SDS011;7439;50.804;4.602;2023-11-21T07:48:47;142.13;;;136.70;;
14698;SDS011;7439;50.804;4.602;2023-11-21T07:51:16;140.77;;;135.47;;
14698;SDS011;7439;50.804;4.602;2023-11-21T07:53:43;138.70;;;133.47;;
14698;SDS011;7439;50.804;4.602;2023-11-21T07:56:11;142.70;;;137.30;;
14698;SDS011;7439;50.804;4.602;2023-11-21T07:58:38;146.97;;;141.47;;
14698;SDS011;7439;50.804;4.602;2023-11-21T08:01:05;147.70;;;142.10;;
14698;SDS011;7439;50.804;4.602;2023-11-21T08:03:33;146.37;;;140.63;;
14698;SDS011;7439;50.804;4.602;2023-11-21T08:06:00;142.33;;;136.83;;
14698;SDS011;7439;50.804;4.602;2023-11-21T08:08:32;134.10;;;128.90;;
14698;SDS011;7439;50.804;4.602;2023-11-21T08:10:59;129.07;;;124.10;;
14698;SDS011;7439;50.804;4.602;2023-11-21T08:13:27;122.77;;;117.97;;
14698;SDS011;7439;50.804;4.602;2023-11-21T08:15:55;116.37;;;111.87;;
14698;SDS011;7439;50.804;4.602;2023-11-21T08:18:26;105.63;;;101.53;;
14698;SDS011;7439;50.804;4.602;2023-11-21T08:20:54;108.33;;;104.20;;
14698;SDS011;7439;50.804;4.602;2023-11-21T08:23:22;102.57;;;98.47;;
14698;SDS011;7439;50.804;4.602;2023-11-21T08:25:52;109.20;;;104.90;;
14698;SDS011;7439;50.804;4.602;2023-11-21T08:28:19;114.07;;;109.60;;
14698;SDS011;7439;50.804;4.602;2023-11-21T08:30:47;120.87;;;116.23;;
14698;SDS011;7439;50.804;4.602;2023-11-21T08:33:15;126.60;;;121.77;;
14698;SDS011;7439;50.804;4.602;2023-11-21T08:35:43;122.83;;;118.03;;
14698;SDS011;7439;50.804;4.602;2023-11-21T08:38:10;130.07;;;125.13;;
14698;SDS011;7439;50.804;4.602;2023-11-21T08:40:38;132.07;;;127.10;;
14698;SDS011;7439;50.804;4.602;2023-11-21T08:43:07;130.30;;;125.20;;
14698;SDS011;7439;50.804;4.602;2023-11-21T08:45:34;139.60;;;134.27;;
14698;SDS011;7439;50.804;4.602;2023-11-21T08:48:01;144.03;;;138.53;;
14698;SDS011;7439;50.804;4.602;2023-11-21T08:50:31;144.73;;;139.17;;
14698;SDS011;7439;50.804;4.602;2023-11-21T08:52:59;149.53;;;143.93;;
14698;SDS011;7439;50.804;4.602;2023-11-21T08:55:26;134.80;;;129.67;;
14698;SDS011;7439;50.804;4.602;2023-11-21T08:57:54;133.00;;;127.97;;
14698;SDS011;7439;50.804;4.602;2023-11-21T09:00:23;127.77;;;122.67;;
14698;SDS011;7439;50.804;4.602;2023-11-21T09:02:53;123.43;;;118.70;;
14698;SDS011;7439;50.804;4.602;2023-11-21T09:05:21;128.13;;;123.23;;
14698;SDS011;7439;50.804;4.602;2023-11-21T09:07:48;150.43;;;144.70;;
14698;SDS011;7439;50.804;4.602;2023-11-21T09:10:15;134.73;;;129.63;;
14698;SDS011;7439;50.804;4.602;2023-11-21T09:12:43;127.00;;;122.10;;
14698;SDS011;7439;50.804;4.602;2023-11-21T09:15:10;129.70;;;124.80;;
14698;SDS011;7439;50.804;4.602;2023-11-21T09:17:39;135.50;;;130.27;;
14698;SDS011;7439;50.804;4.602;2023-11-21T09:20:08;142.27;;;136.90;;
14698;SDS011;7439;50.804;4.602;2023-11-21T09:22:36;143.90;;;138.40;;
14698;SDS011;7439;50.804;4.602;2023-11-21T09:25:03;156.13;;;150.27;;
14698;SDS011;7439;50.804;4.602;2023-11-21T09:27:32;162.07;;;155.93;;
14698;SDS011;7439;50.804;4.602;2023-11-21T09:30:00;172.60;;;166.13;;
14698;SDS011;7439;50.804;4.602;2023-11-21T09:32:30;167.37;;;161.17;;
14698;SDS011;7439;50.804;4.602;2023-11-21T09:34:59;182.50;;;175.63;;
14698;SDS011;7439;50.804;4.602;2023-11-21T09:37:27;201.90;;;194.57;;
14698;SDS011;7439;50.804;4.602;2023-11-21T09:39:54;210.17;;;202.47;;
14698;SDS011;7439;50.804;4.602;2023-11-21T09:42:23;227.77;;;219.57;;
14698;SDS011;7439;50.804;4.602;2023-11-21T09:44:53;231.57;;;223.37;;
14698;SDS011;7439;50.804;4.602;2023-11-21T09:47:21;235.33;;;226.90;;
14698;SDS011;7439;50.804;4.602;2023-11-21T09:49:49;233.63;;;225.33;;
14698;SDS011;7439;50.804;4.602;2023-11-21T09:52:24;210.90;;;203.27;;
14698;SDS011;7439;50.804;4.602;2023-11-21T09:54:52;211.17;;;203.57;;
14698;SDS011;7439;50.804;4.602;2023-11-21T09:57:22;226.60;;;218.50;;
14698;SDS011;7439;50.804;4.602;2023-11-21T09:59:50;230.43;;;222.17;;
14698;SDS011;7439;50.804;4.602;2023-11-21T10:02:26;244.63;;;236.00;;
14698;SDS011;7439;50.804;4.602;2023-11-21T10:04:55;252.17;;;243.33;;
14698;SDS011;7439;50.804;4.602;2023-11-21T10:07:26;248.63;;;239.83;;
14698;SDS011;7439;50.804;4.602;2023-11-21T10:09:55;231.10;;;222.80;;
14698;SDS011;7439;50.804;4.602;2023-11-21T10:12:23;214.17;;;206.67;;
14698;SDS011;7439;50.804;4.602;2023-11-21T10:14:51;202.30;;;195.03;;
14698;SDS011;7439;50.804;4.602;2023-11-21T10:17:19;187.93;;;181.13;;
14698;SDS011;7439;50.804;4.602;2023-11-21T10:19:47;178.53;;;172.03;;
14698;SDS011;7439;50.804;4.602;2023-11-21T10:22:15;159.03;;;153.10;;
14698;SDS011;7439;50.804;4.602;2023-11-21T10:24:46;163.33;;;157.30;;
14698;SDS011;7439;50.804;4.602;2023-11-21T10:27:13;168.37;;;162.10;;
14698;SDS011;7439;50.804;4.602;2023-11-21T10:29:40;191.30;;;184.40;;
14698;SDS011;7439;50.804;4.602;2023-11-21T10:32:08;207.30;;;199.87;;
14698;SDS011;7439;50.804;4.602;2023-11-21T10:34:35;204.17;;;196.77;;
14698;SDS011;7439;50.804;4.602;2023-11-21T10:37:10;207.43;;;199.93;;
14698;SDS011;7439;50.804;4.602;2023-11-21T10:39:38;212.53;;;204.93;;
14698;SDS011;7439;50.804;4.602;2023-11-21T10:42:09;208.10;;;200.43;;
14698;SDS011;7439;50.804;4.602;2023-11-21T10:44:36;197.27;;;190.00;;
14698;SDS011;7439;50.804;4.602;2023-11-21T10:47:03;190.97;;;183.77;;
14698;SDS011;7439;50.804;4.602;2023-11-21T10:49:31;169.57;;;163.10;;
14698;SDS011;7439;50.804;4.602;2023-11-21T10:51:59;168.27;;;161.97;;
14698;SDS011;7439;50.804;4.602;2023-11-21T10:54:26;170.73;;;164.33;;
14698;SDS011;7439;50.804;4.602;2023-11-21T10:56:56;184.83;;;178.03;;
14698;SDS011;7439;50.804;4.602;2023-11-21T10:59:25;192.73;;;185.73;;
14698;SDS011;7439;50.804;4.602;2023-11-21T11:01:54;190.70;;;183.77;;
14698;SDS011;7439;50.804;4.602;2023-11-21T11:04:21;175.77;;;169.27;;
14698;SDS011;7439;50.804;4.602;2023-11-21T11:06:50;196.47;;;189.47;;
14698;SDS011;7439;50.804;4.602;2023-11-21T11:09:18;234.67;;;226.47;;
14698;SDS011;7439;50.804;4.602;2023-11-21T11:11:46;243.37;;;234.97;;
14698;SDS011;7439;50.804;4.602;2023-11-21T11:14:14;248.90;;;240.20;;
14698;SDS011;7439;50.804;4.602;2023-11-21T11:16:43;246.87;;;238.27;;
14698;SDS011;7439;50.804;4.602;2023-11-21T11:19:10;251.70;;;242.77;;
14698;SDS011;7439;50.804;4.602;2023-11-21T11:21:42;269.00;;;259.60;;
14698;SDS011;7439;50.804;4.602;2023-11-21T11:26:56;253.13;;;244.33;;
14698;SDS011;7439;50.804;4.602;2023-11-21T11:29:28;255.93;;;247.03;;
14698;SDS011;7439;50.804;4.602;2023-11-21T11:32:03;285.80;;;275.80;;
14698;SDS011;7439;50.804;4.602;2023-11-21T11:34:32;313.67;;;302.50;;
14698;SDS011;7439;50.804;4.602;2023-11-21T11:37:02;324.43;;;312.90;;
14698;SDS011;7439;50.804;4.602;2023-11-21T11:39:30;315.80;;;304.70;;
14698;SDS011;7439;50.804;4.602;2023-11-21T11:41:58;314.17;;;303.07;;
14698;SDS011;7439;50.804;4.602;2023-11-21T11:47:14;301.23;;;290.70;;
14698;SDS011;7439;50.804;4.602;2023-11-21T11:49:54;298.67;;;288.20;;
14698;SDS011;7439;50.804;4.602;2023-11-21T11:52:31;299.20;;;288.60;;
14698;SDS011;7439;50.804;4.602;2023-11-21T11:54:59;294.33;;;283.93;;
14698;SDS011;7439;50.804;4.602;2023-11-21T11:57:29;272.37;;;262.80;;
14698;SDS011;7439;50.804;4.602;2023-11-21T12:00:10;264.23;;;255.03;;
14698;SDS011;7439;50.804;4.602;2023-11-21T12:02:43;248.17;;;239.43;;
14698;SDS011;7439;50.804;4.602;2023-11-21T12:05:11;267.53;;;258.23;;
14698;SDS011;7439;50.804;4.602;2023-11-21T12:07:41;271.53;;;262.03;;
14698;SDS011;7439;50.804;4.602;2023-11-21T12:10:11;270.60;;;261.23;;
14698;SDS011;7439;50.804;4.602;2023-11-21T12:12:42;292.13;;;281.87;;
14698;SDS011;7439;50.804;4.602;2023-11-21T12:15:10;282.87;;;273.07;;
14698;SDS011;7439;50.804;4.602;2023-11-21T12:17:38;282.90;;;273.03;;
14698;SDS011;7439;50.804;4.602;2023-11-21T12:20:07;271.90;;;262.43;;
14698;SDS011;7439;50.804;4.602;2023-11-21T12:22:41;255.83;;;247.00;;
14698;SDS011;7439;50.804;4.602;2023-11-21T12:25:08;299.87;;;289.50;;
14698;SDS011;7439;50.804;4.602;2023-11-21T12:27:40;306.47;;;295.87;;
14698;SDS011;7439;50.804;4.602;2023-11-21T12:30:08;303.83;;;293.17;;
14698;SDS011;7439;50.804;4.602;2023-11-21T12:32:38;319.90;;;308.67;;
14698;SDS011;7439;50.804;4.602;2023-11-21T12:35:08;339.37;;;327.20;;
14698;SDS011;7439;50.804;4.602;2023-11-21T12:37:36;313.37;;;302.23;;
14698;SDS011;7439;50.804;4.602;2023-11-21T12:40:05;320.93;;;309.47;;
14698;SDS011;7439;50.804;4.602;2023-11-21T12:42:33;275.47;;;266.00;;
14698;SDS011;7439;50.804;4.602;2023-11-21T12:45:10;284.27;;;274.33;;
14698;SDS011;7439;50.804;4.602;2023-11-21T12:47:45;279.17;;;269.50;;
14698;SDS011;7439;50.804;4.602;2023-11-21T12:50:14;302.83;;;292.30;;
14698;SDS011;7439;50.804;4.602;2023-11-21T12:52:42;341.13;;;329.07;;
14698;SDS011;7439;50.804;4.602;2023-11-21T12:55:15;334.83;;;322.80;;
14698;SDS011;7439;50.804;4.602;2023-11-21T12:57:43;331.07;;;319.37;;
14698;SDS011;7439;50.804;4.602;2023-11-21T13:00:12;336.57;;;324.73;;
14698;SDS011;7439;50.804;4.602;2023-11-21T13:02:52;368.90;;;355.57;;
14698;SDS011;7439;50.804;4.602;2023-11-21T13:05:30;381.70;;;367.73;;
14698;SDS011;7439;50.804;4.602;2023-11-21T13:08:03;378.50;;;364.57;;
14698;SDS011;7439;50.804;4.602;2023-11-21T13:10:39;384.30;;;369.93;;
14698;SDS011;7439;50.804;4.602;2023-11-21T13:13:12;408.27;;;392.67;;
14698;SDS011;7439;50.804;4.602;2023-11-21T13:15:46;413.60;;;397.70;;
14698;SDS011;7439;50.804;4.602;2023-11-21T13:18:14;385.50;;;371.10;;
14698;SDS011;7439;50.804;4.602;2023-11-21T13:20:43;385.33;;;370.97;;
14698;SDS011;7439;50.804;4.602;2023-11-21T13:23:11;396.33;;;381.40;;
14698;SDS011;7439;50.804;4.602;2023-11-21T13:25:41;377.37;;;363.40;;
14698;SDS011;7439;50.804;4.602;2023-11-21T13:28:10;352.97;;;340.37;;
14698;SDS011;7439;50.804;4.602;2023-11-21T13:30:40;360.30;;;347.30;;
14698;SDS011;7439;50.804;4.602;2023-11-21T13:33:09;373.77;;;360.37;;
14698;SDS011;7439;50.804;4.602;2023-11-21T13:35:44;392.50;;;377.87;;
14698;SDS011;7439;50.804;4.602;2023-11-21T13:38:15;375.47;;;361.97;;
14698;SDS011;7439;50.804;4.602;2023-11-21T13:40:46;406.27;;;391.07;;
14698;SDS011;7439;50.804;4.602;2023-11-21T13:43:15;395.97;;;381.23;;
14698;SDS011;7439;50.804;4.602;2023-11-21T13:45:43;366.87;;;353.63;;
14698;SDS011;7439;50.804;4.602;2023-11-21T13:48:11;360.03;;;347.10;;
14698;SDS011;7439;50.804;4.602;2023-11-21T13:50:40;343.83;;;331.90;;
14698;SDS011;7439;50.804;4.602;2023-11-21T13:53:15;327.47;;;316.17;;
14698;SDS011;7439;50.804;4.602;2023-11-21T13:55:47;310.13;;;299.53;;
14698;SDS011;7439;50.804;4.602;2023-11-21T13:58:15;308.50;;;297.97;;
14698;SDS011;7439;50.804;4.602;2023-11-21T14:00:44;295.00;;;285.03;;
14698;SDS011;7439;50.804;4.602;2023-11-21T14:03:21;297.80;;;287.73;;
14698;SDS011;7439;50.804;4.602;2023-11-21T14:05:57;293.43;;;283.50;;
14698;SDS011;7439;50.804;4.602;2023-11-21T14:08:27;277.03;;;267.73;;
14698;SDS011;7439;50.804;4.602;2023-11-21T14:10:54;267.70;;;258.70;;
14698;SDS011;7439;50.804;4.602;2023-11-21T14:13:22;269.43;;;260.43;;
14698;SDS011;7439;50.804;4.602;2023-11-21T14:15:50;289.93;;;280.20;;
14698;SDS011;7439;50.804;4.602;2023-11-21T14:18:22;303.23;;;292.93;;
14698;SDS011;7439;50.804;4.602;2023-11-21T14:20:55;295.60;;;285.60;;
14698;SDS011;7439;50.804;4.602;2023-11-21T14:23:23;282.90;;;273.40;;